TISTTISX

Guest
Details From TIST - St Thomas - Cyril E King
To TISX - St Croix - Henry E Rohlsen
Flight Number -
Tags generated
Created
Modified
Stats Distance 39 nm / 73 km
Max Altitude 4,600 ft / 1,402 m
Waypoints 3
Social Downloads 0
Likes 0
Share VATSIM

Download

Looking for another format? Having issues loading an existing format? Contact us
Advertisement - Login to hide

Notes

Basic altitude profile: - Ascent Rate: 2500ft/min - Ascent Speed: 250kts - Cruise Altitude: 35000ft - Cruise Speed: 420kts - Descent Rate: 1500ft/min - Descent Speed: 250kts

Route

TIST OSSEL TISX

ID Type Via Altitude Latitude Longitude Leg Dist Tot Dist Heading (true) Name
O TIST APT - 0 ft / 0 m 18.33730˚ -64.97334˚ - 0 nm - St Thomas - Cyril E King
OSSEL FIX - 4,600 ft / 1,402 m 18.13122˚ -64.90719˚ 12 nm 12 nm 163° / 163° -
O TISX APT - 0 ft / 0 m 17.70151˚ -64.80197˚ 26 nm 39 nm 167° / 167° St Croix - Henry E Rohlsen

Altitude Profile

Advertisement - Login to hide

TIST

Details ICAO TIST (STT)
Name St Thomas - Cyril E King
Region USA (U.S. Virgin Islands)
Timezone Unknown (UTC+0.0)
Stats Elevation 23 ft / 7 m (AMSL)
Location 18.337300° -64.973344°
Runways 1
Magnetic Variation 13.653° W

METAR

TIST 272024Z AUTO 12012KT 10SM SCT019 BKN060 BKN070 A2999 RMK AO2 RAE1954 P0000 $

Decode

TAF

TAF AMD TIST 271756Z 2718/2818 13012KT P6SM VCSH SCT025 SCT050 TEMPO 2718/2720 VRB10KT 2SM SHRA BKN020 OVC030 FM272300 09010KT P6SM VCTS SCT025CB BKN050 FM281400 13012KT P6SM VCSH SCT025

Decode

Departure Runways

ID Width Length Bearing (true) Bearing (mag) Surface Threshold Offset Overrun Length
10 151 ft / 46 m 6,992 ft / 2,131 m 87.44° 101.09° Asphalt 0 ft / 0 m 200 ft / 61 m
28 151 ft / 46 m 6,992 ft / 2,131 m 267.44° 281.09° Asphalt 2,300 ft / 701 m 200 ft / 61 m

TISX

Details ICAO TISX (STX)
Name St Croix - Henry E Rohlsen
Region USA (U.S. Virgin Islands)
Timezone America/St_Thomas (UTC-4.0)
Stats Elevation 65 ft / 20 m (AMSL)
Location 17.701505° -64.801975°
Runways 1
Magnetic Variation 13.695° W

METAR

TISX 271919Z 00000KT 1 1/2SM +RA FEW015 SCT027 BKN032 27/24 A3001 RMK AO2 RAB12 P0012 T02670239

Decode

TAF

TISX 272030Z 2721/2818 12013KT P6SM VCTS SCT025CB SCT050 TEMPO 2721/2723 1 1/2SM TSRA BKN025CB FM272300 08009KT P6SM VCTS SCT025CB SCT050 FM281400 11014G22KT P6SM VCSH SCT030

Decode

Destination Runways

ID Width Length Bearing (true) Bearing (mag) Surface Threshold Offset Overrun Length
10 151 ft / 46 m 9,969 ft / 3,039 m 83.93° 97.62° Asphalt 0 ft / 0 m 200 ft / 61 m
28 151 ft / 46 m 9,969 ft / 3,039 m 263.93° 277.62° Asphalt 984 ft / 300 m 200 ft / 61 m

Approach Navaids

Runway Type Ident Frequency Range Bearing (true) Bearing (mag) Slope Elevation
10 Localiser ISTX 109.50 MHz 18 nm / 33 km 83.89° 97.59° - 23 ft / 7 m (AMSL)
10 Glidescope ISTX 109.50 MHz 10 nm / 19 km 83.89° 97.59° 3.00° 54 ft / 16 m (AMSL)

Popular Alternatives